createdAt,value
2018-02-09T00:00:49.683Z,0
2018-02-09T00:01:59.407Z,0
2018-02-09T00:03:09.490Z,0
2018-02-09T00:04:19.472Z,0
2018-02-09T00:05:29.450Z,0
2018-02-09T00:06:39.170Z,0
2018-02-09T00:07:48.883Z,0
2018-02-09T00:08:58.596Z,0
2018-02-09T00:10:08.575Z,0
2018-02-09T00:11:18.288Z,0
2018-02-09T00:12:28.003Z,0
2018-02-09T00:13:37.714Z,0
2018-02-09T00:14:47.476Z,0
2018-02-09T00:15:57.189Z,0
2018-02-09T00:17:06.907Z,0
2018-02-09T00:18:16.620Z,0
2018-02-09T00:19:26.337Z,0
2018-02-09T00:20:36.195Z,0
2018-02-09T00:21:46.177Z,0
2018-02-09T00:22:55.627Z,0
2018-02-09T00:24:05.602Z,0
2018-02-09T00:25:15.310Z,0
2018-02-09T00:26:25.339Z,0
2018-02-09T00:27:35.059Z,0
2018-02-09T00:28:45.036Z,0
2018-02-09T00:29:54.758Z,0
2018-02-09T00:31:04.472Z,0
2018-02-09T00:32:13.918Z,0
2018-02-09T00:33:23.367Z,0
2018-02-09T00:34:32.824Z,0
2018-02-09T00:35:42.800Z,0
2018-02-09T00:36:52.260Z,0
2018-02-09T00:38:02.000Z,0
2018-02-09T00:39:11.720Z,0
2018-02-09T00:40:21.173Z,0
2018-02-09T00:41:30.895Z,0
2018-02-09T00:42:40.607Z,0
2018-02-09T00:43:50.324Z,0
2018-02-09T00:45:00.313Z,0
2018-02-09T00:46:10.026Z,0
2018-02-09T00:47:20.007Z,0
2018-02-09T00:48:29.465Z,0
2018-02-09T00:49:39.440Z,0
2018-02-09T00:50:49.424Z,0
2018-02-09T00:51:59.408Z,0
2018-02-09T00:53:09.393Z,0
2018-02-09T00:54:19.375Z,0
2018-02-09T00:55:28.831Z,0
2018-02-09T00:56:38.809Z,0
2018-02-09T00:57:48.787Z,0
2018-02-09T00:58:58.510Z,0
2018-02-09T01:00:08.221Z,0
2018-02-09T01:01:18.206Z,0
2018-02-09T01:02:27.923Z,0
2018-02-09T01:03:37.898Z,0
2018-02-09T01:04:47.884Z,0
2018-02-09T01:05:57.870Z,0
2018-02-09T01:07:07.586Z,0
2018-02-09T01:08:17.362Z,0
2018-02-09T01:09:26.808Z,0
2018-02-09T01:10:36.833Z,0
2018-02-09T01:11:46.817Z,0
2018-02-09T01:12:56.537Z,0
2018-02-09T01:14:06.256Z,0
2018-02-09T01:15:15.707Z,0
2018-02-09T01:16:25.421Z,0
2018-02-09T01:17:35.136Z,0
2018-02-09T01:18:44.953Z,0
2018-02-09T01:19:54.937Z,0
2018-02-09T01:21:04.392Z,0
2018-02-09T01:22:13.579Z,0
2018-02-09T01:23:23.300Z,0
2018-02-09T01:24:33.283Z,0
2018-02-09T01:25:43.008Z,0
2018-02-09T01:26:52.983Z,0
2018-02-09T01:28:02.966Z,0
2018-02-09T01:29:12.414Z,0
2018-02-09T01:30:22.433Z,0
2018-02-09T01:31:31.885Z,0
2018-02-09T01:32:41.874Z,0
2018-02-09T01:33:51.628Z,0
2018-02-09T01:35:01.346Z,0
2018-02-09T01:36:10.803Z,0
2018-02-09T01:37:20.518Z,0
2018-02-09T01:38:30.500Z,0
2018-02-09T01:39:40.479Z,0
2018-02-09T01:40:50.467Z,0
2018-02-09T01:42:00.451Z,0
2018-02-09T01:43:10.165Z,0
2018-02-09T01:44:20.142Z,0
2018-02-09T01:45:30.118Z,0
2018-02-09T01:46:39.893Z,0
2018-02-09T01:47:49.885Z,0
2018-02-09T01:48:59.866Z,0
2018-02-09T01:50:09.585Z,0
2018-02-09T01:51:19.301Z,0
2018-02-09T01:52:29.016Z,0
2018-02-09T01:53:38.733Z,0
2018-02-09T01:54:48.712Z,0
2018-02-09T01:55:58.425Z,0
2018-02-09T01:57:08.138Z,0
2018-02-09T01:58:18.120Z,0
2018-02-09T01:59:27.353Z,0
2018-02-09T02:00:37.064Z,0
2018-02-09T02:01:47.035Z,0
2018-02-09T02:02:56.486Z,0
2018-02-09T02:04:06.467Z,0
2018-02-09T02:05:16.444Z,0
2018-02-09T02:06:26.422Z,0
2018-02-09T02:07:36.403Z,0
2018-02-09T02:08:46.380Z,0
2018-02-09T02:09:56.361Z,0
2018-02-09T02:11:05.805Z,0
2018-02-09T02:12:15.519Z,0
2018-02-09T02:13:25.235Z,0
2018-02-09T02:14:34.952Z,0
2018-02-09T02:15:44.927Z,0
2018-02-09T02:16:54.916Z,0
2018-02-09T02:18:04.637Z,0
2018-02-09T02:19:14.353Z,0
2018-02-09T02:20:24.070Z,0
2018-02-09T02:21:34.056Z,0
2018-02-09T02:22:43.820Z,0
2018-02-09T02:23:53.794Z,0
2018-02-09T02:25:03.244Z,0
2018-02-09T02:26:12.693Z,0
2018-02-09T02:27:22.670Z,0
2018-02-09T02:28:31.974Z,0
2018-02-09T02:29:41.963Z,0
2018-02-09T02:30:51.956Z,0
2018-02-09T02:32:01.669Z,0
2018-02-09T02:33:11.657Z,0
2018-02-09T02:34:21.389Z,0
2018-02-09T02:35:31.106Z,0
2018-02-09T02:36:41.095Z,0
2018-02-09T02:37:50.811Z,0
2018-02-09T02:39:00.533Z,0
2018-02-09T02:40:10.259Z,0
2018-02-09T02:41:20.247Z,0
2018-02-09T02:42:30.232Z,0
2018-02-09T02:43:39.945Z,0
2018-02-09T02:44:49.948Z,0
2018-02-09T02:45:59.926Z,0
2018-02-09T02:47:09.651Z,0
2018-02-09T02:48:19.635Z,0
2018-02-09T02:49:29.089Z,0
2018-02-09T02:50:39.080Z,0
2018-02-09T02:51:49.072Z,0
2018-02-09T02:52:59.058Z,0
2018-02-09T02:54:08.775Z,0
2018-02-09T02:55:18.489Z,0
2018-02-09T02:56:28.213Z,0
2018-02-09T02:57:38.203Z,0
2018-02-09T02:58:48.199Z,0
2018-02-09T02:59:57.932Z,0
2018-02-09T03:01:07.658Z,0
2018-02-09T03:02:17.662Z,0
2018-02-09T03:03:27.381Z,0
2018-02-09T03:04:37.363Z,0
2018-02-09T03:05:47.344Z,0
2018-02-09T03:06:57.322Z,0
2018-02-09T03:08:07.046Z,0
2018-02-09T03:09:17.031Z,0
2018-02-09T03:10:27.024Z,0
2018-02-09T03:11:36.739Z,0
2018-02-09T03:12:46.721Z,0
2018-02-09T03:13:56.693Z,0
2018-02-09T03:15:06.673Z,0
2018-02-09T03:16:16.655Z,0
2018-02-09T03:17:26.636Z,0
2018-02-09T03:18:36.096Z,0
2018-02-09T03:19:45.814Z,0
2018-02-09T03:20:55.804Z,0
2018-02-09T03:22:05.598Z,0
2018-02-09T03:23:15.583Z,0
2018-02-09T03:24:25.559Z,0
2018-02-09T03:25:35.543Z,0
2018-02-09T03:26:45.562Z,0
2018-02-09T03:27:55.273Z,0
2018-02-09T03:29:05.257Z,0
2018-02-09T03:30:14.710Z,0
2018-02-09T03:31:24.700Z,0
2018-02-09T03:32:34.676Z,0
2018-02-09T03:33:44.659Z,0
2018-02-09T03:34:54.640Z,0
2018-02-09T03:36:04.359Z,0
2018-02-09T03:37:13.828Z,0
2018-02-09T03:38:23.821Z,0
2018-02-09T03:39:33.799Z,0
2018-02-09T03:40:43.778Z,0
2018-02-09T03:41:52.959Z,0
2018-02-09T03:43:02.939Z,0
2018-02-09T03:44:12.392Z,0
2018-02-09T03:45:22.108Z,0
2018-02-09T03:46:32.084Z,0
2018-02-09T03:47:42.066Z,0
2018-02-09T03:48:51.784Z,0
2018-02-09T03:50:01.232Z,0
2018-02-09T03:51:11.214Z,0
2018-02-09T03:52:21.247Z,0
2018-02-09T03:53:31.229Z,0
2018-02-09T03:54:41.210Z,0
2018-02-09T03:55:50.923Z,0
2018-02-09T03:57:00.640Z,0
2018-02-09T03:58:09.828Z,0
2018-02-09T03:59:19.810Z,0
2018-02-09T04:03:27.907Z,0
2018-02-09T04:04:37.618Z,0
2018-02-09T04:05:47.339Z,0
2018-02-09T04:06:57.314Z,0
2018-02-09T04:08:07.043Z,0
2018-02-09T04:09:16.760Z,0
2018-02-09T04:10:26.794Z,0
2018-02-09T04:11:36.503Z,0
2018-02-09T04:12:46.219Z,0
2018-02-09T04:13:56.206Z,0
2018-02-09T04:15:05.658Z,0
2018-02-09T04:16:15.646Z,0
2018-02-09T04:17:25.624Z,0
2018-02-09T04:18:35.610Z,0
2018-02-09T04:19:45.340Z,0
2018-02-09T04:20:55.323Z,0
2018-02-09T04:22:05.041Z,0
2018-02-09T04:23:14.490Z,0
2018-02-09T04:24:24.200Z,0
2018-02-09T04:25:33.920Z,0
2018-02-09T04:26:43.897Z,0
2018-02-09T04:27:53.623Z,0
2018-02-09T04:29:03.608Z,0
2018-02-09T04:30:13.058Z,0
2018-02-09T04:31:22.629Z,0
2018-02-09T04:32:32.302Z,0
2018-02-09T04:33:42.280Z,0
2018-02-09T04:34:52.289Z,0
2018-02-09T04:36:02.265Z,0
2018-02-09T04:37:11.458Z,0
2018-02-09T04:38:21.443Z,0
2018-02-09T04:39:31.426Z,0
2018-02-09T04:40:41.408Z,0
2018-02-09T04:41:51.132Z,0
2018-02-09T04:43:01.106Z,0
2018-02-09T04:44:11.085Z,0
2018-02-09T04:45:20.804Z,0
2018-02-09T04:46:30.307Z,0
2018-02-09T04:47:40.021Z,0
2018-02-09T04:48:49.470Z,0
2018-02-09T04:49:59.188Z,0
2018-02-09T04:51:08.927Z,0
2018-02-09T04:52:18.913Z,0
2018-02-09T04:53:28.638Z,0
2018-02-09T04:54:38.623Z,0
2018-02-09T04:55:48.609Z,0
2018-02-09T04:56:58.594Z,0
2018-02-09T04:58:08.049Z,0
2018-02-09T04:59:17.766Z,0
2018-02-09T05:00:27.742Z,0
2018-02-09T05:01:37.456Z,0
2018-02-09T05:02:47.471Z,0
2018-02-09T05:03:57.506Z,0
2018-02-09T05:05:07.226Z,0
2018-02-09T05:06:16.947Z,0
2018-02-09T05:07:26.927Z,0
2018-02-09T05:08:36.643Z,0
2018-02-09T05:09:46.363Z,0
2018-02-09T05:10:56.339Z,0
2018-02-09T05:12:06.317Z,0
2018-02-09T05:13:16.301Z,0
2018-02-09T05:14:26.022Z,0
2018-02-09T05:15:35.737Z,0
2018-02-09T05:16:45.719Z,0
2018-02-09T05:17:55.704Z,0
2018-02-09T05:19:05.683Z,0
2018-02-09T05:20:15.399Z,0
2018-02-09T05:21:25.113Z,0
2018-02-09T05:22:35.093Z,0
2018-02-09T05:23:45.075Z,0
2018-02-09T05:24:55.062Z,0
2018-02-09T05:26:04.830Z,0
2018-02-09T05:27:14.819Z,0
2018-02-09T05:28:24.804Z,0
2018-02-09T05:29:34.799Z,0
2018-02-09T05:30:44.512Z,0
2018-02-09T05:31:54.235Z,0
2018-02-09T05:33:03.686Z,0
2018-02-09T05:34:13.523Z,0
2018-02-09T05:35:23.508Z,0
2018-02-09T05:36:33.226Z,0
2018-02-09T05:37:43.208Z,0
2018-02-09T05:38:53.200Z,0
2018-02-09T05:40:02.924Z,0
2018-02-09T05:41:12.645Z,0
2018-02-09T05:42:22.361Z,0
2018-02-09T05:43:32.350Z,0
2018-02-09T05:44:41.804Z,0
2018-02-09T05:45:51.789Z,0
2018-02-09T05:47:01.502Z,0
2018-02-09T05:48:10.954Z,0
2018-02-09T05:49:20.672Z,0
2018-02-09T05:50:30.653Z,0
2018-02-09T05:51:40.649Z,0
2018-02-09T05:52:50.362Z,0
2018-02-09T05:54:00.338Z,0
2018-02-09T05:55:10.325Z,0
2018-02-09T05:56:20.309Z,0
2018-02-09T05:57:30.306Z,0
2018-02-09T05:58:40.288Z,0
2018-02-09T05:59:50.265Z,0
2018-02-09T06:00:59.987Z,0
2018-02-09T06:02:09.788Z,0
2018-02-09T06:03:19.777Z,0
2018-02-09T06:04:29.758Z,0
2018-02-09T06:05:39.481Z,0
2018-02-09T06:06:49.462Z,0
2018-02-09T06:07:59.452Z,0
2018-02-09T06:09:09.434Z,0
2018-02-09T06:10:19.417Z,0
2018-02-09T06:11:29.155Z,0
2018-02-09T06:12:38.609Z,0
2018-02-09T06:13:48.338Z,0
2018-02-09T06:14:58.377Z,0
2018-02-09T06:16:08.097Z,0
2018-02-09T06:17:18.080Z,0
2018-02-09T06:18:28.061Z,0
2018-02-09T06:19:38.040Z,0
2018-02-09T06:20:47.766Z,0
2018-02-09T06:21:57.809Z,0
2018-02-09T06:23:07.785Z,0
2018-02-09T06:24:16.979Z,0
2018-02-09T06:25:26.961Z,0
2018-02-09T06:26:36.682Z,0
2018-02-09T06:27:46.713Z,0
2018-02-09T06:28:56.693Z,0
2018-02-09T06:30:06.715Z,0
2018-02-09T06:31:16.426Z,4
2018-02-09T06:32:26.416Z,4
2018-02-09T06:33:36.400Z,0
2018-02-09T06:34:46.382Z,4
2018-02-09T06:35:56.127Z,4
2018-02-09T06:37:06.113Z,0
2018-02-09T06:38:16.096Z,4
2018-02-09T06:39:26.079Z,4
2018-02-09T06:40:35.793Z,4
2018-02-09T06:41:45.507Z,8
2018-02-09T06:42:55.224Z,4
2018-02-09T06:44:05.203Z,8
2018-02-09T06:45:14.918Z,12
2018-02-09T06:46:24.639Z,12
2018-02-09T06:47:34.619Z,12
2018-02-09T06:48:44.602Z,16
2018-02-09T06:49:54.319Z,16
2018-02-09T06:51:04.039Z,20
2018-02-09T06:52:13.751Z,24
2018-02-09T06:53:23.515Z,24
2018-02-09T06:54:33.501Z,28
2018-02-09T06:55:43.526Z,32
2018-02-09T06:56:53.507Z,36
2018-02-09T06:58:03.227Z,36
2018-02-09T06:59:12.685Z,44
2018-02-09T07:00:22.410Z,44
2018-02-09T07:01:32.125Z,52
2018-02-09T07:02:42.104Z,56
2018-02-09T07:03:51.817Z,56
2018-02-09T07:05:01.528Z,60
2018-02-09T07:06:11.515Z,64
2018-02-09T07:07:21.236Z,68
2018-02-09T07:08:30.690Z,68
2018-02-09T07:09:40.673Z,72
2018-02-09T07:10:50.385Z,76
2018-02-09T07:12:00.101Z,88
2018-02-09T07:13:09.819Z,92
2018-02-09T07:14:19.798Z,104
2018-02-09T07:15:29.777Z,112
2018-02-09T07:16:39.760Z,120
2018-02-09T07:17:49.528Z,128
2018-02-09T07:18:59.505Z,140
2018-02-09T07:20:09.229Z,152
2018-02-09T07:21:18.943Z,164
2018-02-09T07:22:28.918Z,168
2018-02-09T07:23:38.638Z,180
2018-02-09T07:24:48.676Z,184
2018-02-09T07:25:58.397Z,192
2018-02-09T07:27:07.848Z,200
2018-02-09T07:28:17.301Z,200
2018-02-09T07:29:27.280Z,196
2018-02-09T07:30:36.997Z,196
2018-02-09T07:31:46.986Z,192
2018-02-09T07:32:56.755Z,192
2018-02-09T07:34:06.733Z,196
2018-02-09T07:35:16.717Z,200
2018-02-09T07:36:26.437Z,200
2018-02-09T07:37:36.146Z,204
2018-02-09T07:38:45.598Z,204
2018-02-09T07:39:55.046Z,216
2018-02-09T07:41:04.775Z,220
2018-02-09T07:42:14.758Z,232
2018-02-09T07:43:24.479Z,248
2018-02-09T07:44:34.275Z,260
2018-02-09T07:45:43.726Z,264
2018-02-09T07:46:53.246Z,268
2018-02-09T07:48:02.969Z,280
2018-02-09T07:49:12.687Z,288
2018-02-09T07:50:22.663Z,292
2018-02-09T07:51:32.107Z,308
2018-02-09T07:52:42.088Z,320
2018-02-09T07:53:51.800Z,336
2018-02-09T07:55:01.781Z,364
2018-02-09T07:56:11.762Z,388
2018-02-09T07:57:21.739Z,420
2018-02-09T07:58:31.455Z,448
2018-02-09T07:59:41.442Z,476
2018-02-09T08:00:51.427Z,520
2018-02-09T08:02:01.405Z,528
2018-02-09T08:03:11.122Z,552
2018-02-09T08:04:21.108Z,568
2018-02-09T08:05:30.303Z,600
2018-02-09T08:06:40.294Z,652
2018-02-09T08:07:50.269Z,668
2018-02-09T08:08:59.987Z,720
2018-02-09T08:10:09.978Z,788
2018-02-09T08:11:19.688Z,848
2018-02-09T08:12:29.667Z,928
2018-02-09T08:13:39.392Z,996
2018-02-09T08:14:49.158Z,1060
2018-02-09T08:15:59.136Z,1156
2018-02-09T08:17:08.585Z,1216
2018-02-09T08:18:18.583Z,1268
2018-02-09T08:19:28.295Z,1368
2018-02-09T08:20:38.016Z,1520
2018-02-09T08:21:47.998Z,1520
2018-02-09T08:22:57.725Z,1584
2018-02-09T08:24:07.441Z,1612
2018-02-09T08:25:17.164Z,1708
2018-02-09T08:26:26.346Z,1816
2018-02-09T08:27:36.327Z,1776
2018-02-09T08:28:45.776Z,1740
2018-02-09T08:29:55.763Z,1656
2018-02-09T08:31:05.748Z,1684
2018-02-09T08:32:15.200Z,1764
2018-02-09T08:33:24.649Z,1784
2018-02-09T08:34:34.881Z,1760
2018-02-09T08:35:44.605Z,1840
2018-02-09T08:36:54.587Z,1988
2018-02-09T08:38:04.568Z,1924
2018-02-09T08:39:14.561Z,2000
2018-02-09T08:40:24.275Z,2100
2018-02-09T08:41:34.259Z,2148
2018-02-09T08:42:43.974Z,2120
2018-02-09T08:43:53.963Z,2284
2018-02-09T08:45:03.679Z,2372
2018-02-09T08:46:13.142Z,2348
2018-02-09T08:47:23.124Z,2476
2018-02-09T08:48:32.990Z,2564
2018-02-09T08:49:42.978Z,2692
2018-02-09T08:50:52.427Z,2668
2018-02-09T08:52:01.875Z,2884
2018-02-09T08:53:11.595Z,3076
2018-02-09T08:54:21.093Z,3216
2018-02-09T08:55:30.546Z,3368
2018-02-09T08:56:40.267Z,3684
2018-02-09T08:57:49.979Z,3820
2018-02-09T08:58:59.430Z,3868
2018-02-09T09:00:09.414Z,3912
2018-02-09T09:01:19.401Z,4012
2018-02-09T09:02:29.118Z,4428
2018-02-09T09:03:38.844Z,4832
2018-02-09T09:04:48.570Z,4880
2018-02-09T09:05:58.013Z,5112
2018-02-09T09:07:07.733Z,5204
2018-02-09T09:08:17.461Z,5544
2018-02-09T09:09:27.458Z,5508
2018-02-09T09:10:37.445Z,5792
2018-02-09T09:11:47.164Z,5740
2018-02-09T09:12:57.143Z,5584
2018-02-09T09:14:06.860Z,5644
2018-02-09T09:15:16.845Z,5584
2018-02-09T09:16:26.298Z,5676
2018-02-09T09:17:36.273Z,5952
2018-02-09T09:18:45.726Z,5812
2018-02-09T09:19:55.709Z,5820
2018-02-09T09:21:05.711Z,5740
2018-02-09T09:22:15.427Z,5464
2018-02-09T09:23:24.881Z,5404
2018-02-09T09:24:34.865Z,5088
2018-02-09T09:25:44.322Z,5020
2018-02-09T09:26:54.371Z,5084
2018-02-09T09:28:04.363Z,5204
2018-02-09T09:29:14.356Z,5228
2018-02-09T09:30:24.073Z,5120
2018-02-09T09:31:33.795Z,5096
2018-02-09T09:32:43.513Z,5132
2018-02-09T09:33:53.228Z,5048
2018-02-09T09:35:03.220Z,4980
2018-02-09T09:36:12.674Z,4860
2018-02-09T09:37:22.658Z,4736
2018-02-09T09:38:32.377Z,4612
2018-02-09T09:39:42.095Z,4584
2018-02-09T09:40:52.084Z,4584
2018-02-09T09:42:01.274Z,4648
2018-02-09T09:43:11.259Z,4700
2018-02-09T09:44:21.240Z,4704
2018-02-09T09:45:30.692Z,4796
2018-02-09T09:46:40.690Z,4936
2018-02-09T09:47:50.404Z,5068
2018-02-09T09:49:00.388Z,4972
2018-02-09T09:50:10.368Z,5044
2018-02-09T09:51:19.823Z,5176
2018-02-09T09:52:29.322Z,5276
2018-02-09T09:53:39.307Z,5164
2018-02-09T09:54:49.282Z,5124
2018-02-09T09:55:58.470Z,5160
2018-02-09T09:57:08.185Z,5308
2018-02-09T09:58:17.911Z,5528
2018-02-09T09:59:27.102Z,5680
2018-02-09T10:00:37.079Z,5572
2018-02-09T10:01:47.059Z,5480
2018-02-09T10:02:56.254Z,5368
2018-02-09T10:04:06.245Z,5204
2018-02-09T10:05:16.231Z,5104
2018-02-09T10:06:25.682Z,5028
2018-02-09T10:07:35.414Z,5140
2018-02-09T10:08:44.600Z,5112
2018-02-09T10:09:54.314Z,5112
2018-02-09T10:11:04.032Z,5120
2018-02-09T10:12:13.751Z,5120
2018-02-09T10:13:23.738Z,5204
2018-02-09T10:14:32.926Z,5236
2018-02-09T10:15:42.916Z,5192
2018-02-09T10:16:52.684Z,5092
2018-02-09T10:18:02.402Z,4960
2018-02-09T10:19:12.120Z,4888
2018-02-09T10:20:22.099Z,4872
2018-02-09T10:21:31.829Z,4832
2018-02-09T10:22:41.027Z,4756
2018-02-09T10:23:50.752Z,4728
2018-02-09T10:25:00.746Z,4688
2018-02-09T10:26:10.212Z,4612
2018-02-09T10:27:19.939Z,4488
2018-02-09T10:28:29.923Z,4404
2018-02-09T10:29:39.900Z,4364
2018-02-09T10:30:49.694Z,4336
2018-02-09T10:31:59.425Z,4268
2018-02-09T10:33:09.143Z,4288
2018-02-09T10:34:18.869Z,4364
2018-02-09T10:35:28.849Z,4260
2018-02-09T10:36:38.303Z,4112
2018-02-09T10:37:48.332Z,4100
2018-02-09T10:38:58.057Z,4056
2018-02-09T10:40:07.773Z,4044
2018-02-09T10:41:17.489Z,4044
2018-02-09T10:42:27.209Z,4076
2018-02-09T10:43:37.195Z,4164
2018-02-09T10:44:47.181Z,4168
2018-02-09T10:45:56.899Z,4204
2018-02-09T10:47:06.882Z,4212
2018-02-09T10:48:16.862Z,4360
2018-02-09T10:49:26.846Z,4516
2018-02-09T10:50:36.568Z,4612
2018-02-09T10:51:46.553Z,4592
2018-02-09T10:52:56.542Z,4568
2018-02-09T10:54:06.257Z,4504
2018-02-09T10:55:16.241Z,4396
2018-02-09T10:56:26.227Z,4376
2018-02-09T10:57:35.682Z,4364
2018-02-09T10:58:45.673Z,4324
2018-02-09T10:59:55.126Z,4264
2018-02-09T11:01:04.895Z,4236
2018-02-09T11:02:14.873Z,4136
2018-02-09T11:03:24.860Z,4072
2018-02-09T11:04:34.840Z,4064
2018-02-09T11:05:44.569Z,3972
2018-02-09T11:06:54.594Z,3940
2018-02-09T11:08:04.601Z,3876
2018-02-09T11:09:14.577Z,3864
2018-02-09T11:10:24.295Z,3780
2018-02-09T11:11:34.281Z,3744
2018-02-09T11:12:44.304Z,3740
2018-02-09T11:13:54.290Z,3736
2018-02-09T11:15:04.312Z,3652
2018-02-09T11:16:13.782Z,3560
2018-02-09T11:17:23.845Z,3460
2018-02-09T11:18:33.294Z,3420
2018-02-09T11:19:43.120Z,3348
2018-02-09T11:20:52.835Z,3208
2018-02-09T11:22:02.553Z,3064
2018-02-09T11:23:12.272Z,3032
2018-02-09T11:24:21.999Z,2980
2018-02-09T11:25:31.979Z,2928
2018-02-09T11:26:41.959Z,2816
2018-02-09T11:27:51.938Z,2784
2018-02-09T11:29:01.921Z,2716
2018-02-09T11:30:11.372Z,2712
2018-02-09T11:31:21.385Z,2688
2018-02-09T11:32:31.371Z,2660
2018-02-09T11:33:40.828Z,2668
2018-02-09T11:34:50.824Z,2640
2018-02-09T11:36:00.829Z,2604
2018-02-09T11:37:10.282Z,2576
2018-02-09T11:38:20.296Z,2532
2018-02-09T11:39:30.011Z,2532
2018-02-09T11:40:39.726Z,2544
2018-02-09T11:41:49.714Z,2556
2018-02-09T11:42:59.425Z,2528
2018-02-09T11:44:09.147Z,2524
2018-02-09T11:45:18.867Z,2480
2018-02-09T11:46:28.588Z,2448
2018-02-09T11:47:37.776Z,2404
2018-02-09T11:48:47.490Z,2368
2018-02-09T11:49:57.206Z,2364
2018-02-09T11:51:07.207Z,2296
2018-02-09T11:52:17.237Z,2316
2018-02-09T11:53:26.690Z,2308
2018-02-09T11:54:36.670Z,2348
2018-02-09T11:55:46.385Z,2352
2018-02-09T11:56:56.105Z,2352
2018-02-09T11:58:06.086Z,2400
2018-02-09T11:59:15.811Z,2428
2018-02-09T12:00:25.533Z,2376
2018-02-09T12:01:34.722Z,2308
2018-02-09T12:02:44.436Z,2336
2018-02-09T12:03:53.899Z,2332
2018-02-09T12:05:03.880Z,2360
2018-02-09T12:06:13.602Z,2448
2018-02-09T12:07:23.585Z,2424
2018-02-09T12:08:33.567Z,2396
2018-02-09T12:09:43.548Z,2468
2018-02-09T12:10:53.003Z,2476
2018-02-09T12:12:02.718Z,2492
2018-02-09T12:13:12.698Z,2488
2018-02-09T12:14:22.425Z,2480
2018-02-09T12:15:32.207Z,2448
2018-02-09T12:16:42.249Z,2436
2018-02-09T12:17:52.235Z,2484
2018-02-09T12:19:01.684Z,2508
2018-02-09T12:20:11.145Z,2460
2018-02-09T12:21:21.128Z,2452
2018-02-09T12:22:31.107Z,2388
2018-02-09T12:23:40.559Z,2336
2018-02-09T12:24:50.539Z,2304
2018-02-09T12:26:00.521Z,2312
2018-02-09T12:27:10.285Z,2376
2018-02-09T12:28:20.069Z,2360
2018-02-09T12:29:30.054Z,2320
2018-02-09T12:30:40.035Z,2316
2018-02-09T12:31:49.751Z,2324
2018-02-09T12:32:59.468Z,2360
2018-02-09T12:34:09.453Z,2384
2018-02-09T12:35:19.441Z,2420
2018-02-09T12:36:29.156Z,2484
2018-02-09T12:37:38.615Z,2544
2018-02-09T12:38:48.337Z,2604
2018-02-09T12:39:58.319Z,2628
2018-02-09T12:41:08.045Z,2688
2018-02-09T12:42:17.529Z,2752
2018-02-09T12:43:27.050Z,2908
2018-02-09T12:44:36.237Z,2976
2018-02-09T12:45:46.214Z,2980
2018-02-09T12:46:55.942Z,3148
2018-02-09T12:48:05.399Z,3356
2018-02-09T12:49:15.382Z,3588
2018-02-09T12:50:25.361Z,3892
2018-02-09T12:51:35.339Z,4212
2018-02-09T12:52:45.053Z,4168
2018-02-09T12:53:55.035Z,4340
2018-02-09T12:55:04.487Z,4660
2018-02-09T12:56:13.675Z,4784
2018-02-09T12:57:23.661Z,4688
2018-02-09T12:58:33.707Z,4768
2018-02-09T12:59:43.424Z,4748
2018-02-09T13:00:53.142Z,4816
2018-02-09T13:02:02.863Z,5000
2018-02-09T13:03:12.583Z,4856
2018-02-09T13:04:22.563Z,4728
2018-02-09T13:05:32.017Z,4864
2018-02-09T13:06:41.731Z,4736
2018-02-09T13:07:51.450Z,5064
2018-02-09T13:09:01.165Z,5324
2018-02-09T13:10:11.144Z,5188
2018-02-09T13:11:20.857Z,5228
2018-02-09T13:12:30.312Z,5308
2018-02-09T13:13:40.030Z,5504
2018-02-09T13:14:50.019Z,5360
2018-02-09T13:16:00.009Z,5292
2018-02-09T13:17:10.047Z,4952
2018-02-09T13:18:20.034Z,4696
2018-02-09T13:19:29.744Z,4564
2018-02-09T13:20:39.734Z,4348
2018-02-09T13:21:49.500Z,4068
2018-02-09T13:22:59.478Z,3680
2018-02-09T13:24:08.930Z,3748
2018-02-09T13:25:18.667Z,3604
2018-02-09T13:26:28.699Z,3384
2018-02-09T13:27:38.428Z,3456
2018-02-09T13:28:47.884Z,3636
2018-02-09T13:29:57.598Z,3628
2018-02-09T13:31:07.315Z,4032
2018-02-09T13:32:16.764Z,3948
2018-02-09T13:33:26.753Z,3756
2018-02-09T13:34:36.731Z,3640
2018-02-09T13:35:46.710Z,3664
2018-02-09T13:36:56.430Z,3824
2018-02-09T13:38:06.151Z,3748
2018-02-09T13:39:16.073Z,3692
2018-02-09T13:40:25.787Z,3640
2018-02-09T13:41:35.773Z,3600
2018-02-09T13:42:45.770Z,3700
2018-02-09T13:43:55.755Z,3664
2018-02-09T13:45:05.886Z,3744
2018-02-09T13:46:15.601Z,3804
2018-02-09T13:47:25.584Z,3720
2018-02-09T13:48:35.038Z,3752
2018-02-09T13:49:45.020Z,3520
2018-02-09T13:50:55.057Z,3416
2018-02-09T13:52:04.777Z,3540
2018-02-09T13:53:14.228Z,3260
2018-02-09T13:54:24.209Z,3108
2018-02-09T13:55:33.923Z,3156
2018-02-09T13:56:43.686Z,3048
2018-02-09T13:57:53.690Z,2916
2018-02-09T13:59:03.142Z,2800
2018-02-09T14:00:12.862Z,2684
2018-02-09T14:01:22.850Z,2644
2018-02-09T14:02:32.833Z,2580
2018-02-09T14:03:42.549Z,2668
2018-02-09T14:04:51.738Z,2804
2018-02-09T14:06:01.720Z,2896
2018-02-09T14:07:11.165Z,2952
2018-02-09T14:08:21.150Z,2840
2018-02-09T14:09:30.607Z,2816
2018-02-09T14:10:40.325Z,2780
2018-02-09T14:11:50.315Z,2748
2018-02-09T14:13:00.299Z,2672
2018-02-09T14:14:10.074Z,2612
2018-02-09T14:15:19.793Z,2512
2018-02-09T14:16:29.510Z,2492
2018-02-09T14:17:39.303Z,2424
2018-02-09T14:18:49.288Z,2380
2018-02-09T14:19:59.356Z,2348
2018-02-09T14:21:09.360Z,2256
2018-02-09T14:22:19.363Z,2232
2018-02-09T14:23:29.081Z,2236
2018-02-09T14:24:39.061Z,2220
2018-02-09T14:25:48.881Z,2252
2018-02-09T14:26:58.598Z,2224
2018-02-09T14:28:08.050Z,2260
2018-02-09T14:29:17.500Z,2272
2018-02-09T14:30:27.483Z,2284
2018-02-09T14:31:37.201Z,2448
2018-02-09T14:32:46.911Z,2480
2018-02-09T14:33:56.897Z,2412
2018-02-09T14:35:06.609Z,2416
2018-02-09T14:36:16.058Z,2364
2018-02-09T14:37:26.040Z,2372
2018-02-09T14:38:35.802Z,2396
2018-02-09T14:39:45.779Z,2360
2018-02-09T14:40:55.498Z,2248
2018-02-09T14:42:05.493Z,2160
2018-02-09T14:43:15.509Z,1996
2018-02-09T14:44:25.490Z,1872
2018-02-09T14:45:35.469Z,1728
2018-02-09T14:46:45.233Z,1608
2018-02-09T14:47:55.214Z,1484
2018-02-09T14:49:05.095Z,1400
2018-02-09T14:50:14.819Z,1380
2018-02-09T14:51:24.808Z,1352
2018-02-09T14:52:34.259Z,1368
2018-02-09T14:53:43.975Z,1320
2018-02-09T14:54:53.957Z,1268
2018-02-09T14:56:03.684Z,1204
2018-02-09T14:57:13.401Z,1184
2018-02-09T14:58:23.124Z,1176
2018-02-09T14:59:32.841Z,1168
2018-02-09T15:00:42.670Z,1128
2018-02-09T15:01:52.659Z,1152
2018-02-09T15:03:02.643Z,1072
2018-02-09T15:04:12.365Z,964
2018-02-09T15:05:22.342Z,924
2018-02-09T15:06:32.071Z,896
2018-02-09T15:07:42.054Z,852
2018-02-09T15:08:51.506Z,840
2018-02-09T15:10:01.234Z,812
2018-02-09T15:11:10.689Z,772
2018-02-09T15:12:20.138Z,728
2018-02-09T15:13:30.123Z,712
2018-02-09T15:14:39.840Z,708
2018-02-09T15:15:49.030Z,672
2018-02-09T15:16:58.752Z,636
2018-02-09T15:18:08.474Z,596
2018-02-09T15:19:18.453Z,548
2018-02-09T15:20:28.169Z,528
2018-02-09T15:21:37.880Z,500
2018-02-09T15:22:47.338Z,480
2018-02-09T15:23:57.317Z,456
2018-02-09T15:25:07.344Z,428
2018-02-09T15:26:17.062Z,400
2018-02-09T15:27:27.047Z,392
2018-02-09T15:28:36.766Z,388
2018-02-09T15:29:46.627Z,356
2018-02-09T15:30:56.610Z,340
2018-02-09T15:32:06.329Z,328
2018-02-09T15:33:16.314Z,308
2018-02-09T15:34:26.407Z,280
2018-02-09T15:35:36.392Z,264
2018-02-09T15:36:45.843Z,252
2018-02-09T15:37:55.823Z,244
2018-02-09T15:39:05.536Z,232
2018-02-09T15:40:15.522Z,216
2018-02-09T15:41:25.239Z,204
2018-02-09T15:42:34.694Z,188
2018-02-09T15:43:44.678Z,180
2018-02-09T15:44:54.660Z,168
2018-02-09T15:46:04.639Z,152
2018-02-09T15:47:14.665Z,148
2018-02-09T15:48:24.643Z,144
2018-02-09T15:49:34.096Z,136
2018-02-09T15:50:44.078Z,128
2018-02-09T15:51:54.056Z,120
2018-02-09T15:53:04.044Z,116
2018-02-09T15:54:14.019Z,108
2018-02-09T15:55:23.999Z,96
2018-02-09T15:56:33.985Z,88
2018-02-09T15:57:44.213Z,84
2018-02-09T15:58:53.726Z,76
2018-02-09T16:00:03.438Z,68
2018-02-09T16:01:13.428Z,60
2018-02-09T16:02:23.424Z,56
2018-02-09T16:03:33.405Z,48
2018-02-09T16:04:43.137Z,44
2018-02-09T16:05:52.891Z,40
2018-02-09T16:07:02.345Z,36
2018-02-09T16:08:11.800Z,32
2018-02-09T16:09:21.786Z,24
2018-02-09T16:10:31.868Z,24
2018-02-09T16:11:41.580Z,20
2018-02-09T16:12:51.575Z,20
2018-02-09T16:14:01.290Z,16
2018-02-09T16:15:11.289Z,12
2018-02-09T16:16:21.291Z,12
2018-02-09T16:17:31.007Z,12
2018-02-09T16:18:40.719Z,8
2018-02-09T16:19:50.436Z,8